Louiseville, Canada
Current Conditions -  °F | °C
As of 11:00 PM on Saturday 24 Jan 2015 (Local Time) from CYRQ Reporting Station
Haze Haze  
Wind Chill: 19°   Ceiling: 3400
Heat Index: 27°   Visibility: 4mi
Dew Point: 25°   Wind: 7mph
Humidity: 93%   Direction: 240°WSW
Pressure: 29.23"   Gusts: NA
Location:  46.25°N, 72.93°W
Report Text: CYRQ 250400Z AUTO 24006KT 4SM BR OVC034 M03/M04 A2923 RMK SLP902
Loading
Personal Weather Stations






























Interactive Weather Map New forecast layout! Learn more

10-Day Weather Forecast

Advertisements
Track Severe Weather on mobile